Time;durP1;ratioP1;P1;durP2;ratioP2;P2;SDS_P1;SDS_P2;PMS_P1;PMS_P2;Temp;Humidity;BMP_temperature;BMP_pressure;BME280_temperature;BME280_humidity;BME280_pressure;Samples;Min_cycle;Max_cycle;Signal;HPM_P1;HPM_P2
2024/03/04 05:47:37;;;;;;;;;;;;;;;-0.08;93.22;100462.83;83822;1313;22831;-54
2024/03/04 05:50:07;;;;;;;;;;;;;;;0.05;93.89;100465.97;107005;1307;22523;-55
2024/03/04 05:52:34;;;;;;;;;;;;;;;0.16;94.22;100461.82;107214;1304;22484;-49
2024/03/04 05:55:04;;;;;;;;;;;;;;;0.25;94.34;100459.66;107125;1307;22535;-51
2024/03/04 05:57:34;;;;;;;;;;;;;;;0.32;94.20;100464.25;107116;1304;22542;-56
2024/03/04 06:00:11;;;;;;;;;;;;;;;0.38;94.60;100461.92;106948;1304;23167;-49
2024/03/04 06:02:40;;;;;;;;;;;;;;;0.46;94.61;100466.37;107002;1304;23371;-52
2024/03/04 06:05:11;;;;;;;;;;;;;;;0.52;94.73;100465.82;107045;1305;22519;-54
2024/03/04 06:07:38;;;;;;;;;;;;;;;0.59;94.61;100463.67;106979;1304;22482;-55
2024/03/04 06:10:07;;;;;;;;;;;;;;;0.65;94.58;100467.21;106950;1303;22510;-51
2024/03/04 06:12:35;;;;;;;;;;;;;;;0.70;94.24;100465.70;107012;1303;22524;-56
2024/03/04 06:15:06;;;;;;;;;;;;;;;0.74;94.14;100464.48;107050;1297;23015;-56
2024/03/04 06:17:38;;;;;;;;;;;;;;;0.82;94.24;100465.52;106819;1308;22505;-52
2024/03/04 06:23:43;;;;;;;;;;;;;;;1.08;94.23;100463.86;106830;1303;23285;-55
2024/03/04 06:39:27;;;;;;;;;;;;;;;1.73;93.59;100471.23;106841;1306;23038;-56
2024/03/04 06:50:22;;;;;;;;;;;;;;;2.28;92.42;100458.98;106785;1304;23334;-56
2024/03/04 06:53:56;;;;;;;;;;;;;;;2.54;91.82;100460.77;106797;1295;22584;-51
2024/03/04 06:57:07;;;;;;;;;;;;;;;2.71;90.90;100455.81;106770;1306;22580;-57
2024/03/04 07:00:12;;;;;;;;;;;;;;;2.81;90.26;100452.04;106885;1296;22520;-52
2024/03/04 07:02:47;;;;;;;;;;;;;;;2.95;89.88;100452.84;106971;1310;22497;-56
2024/03/04 07:05:25;;;;;;;;;;;;;;;3.10;89.81;100447.65;106761;1306;23403;-56
2024/03/04 07:08:58;;;;;;;;;;;;;;;3.28;88.65;100446.15;106764;1307;22534;-54
2024/03/04 07:12:15;;;;;;;;;;;;;;;3.39;87.68;100443.77;106761;1306;22596;-49
2024/03/04 07:15:04;;;;;;;;;;;;;;;3.51;86.89;100442.55;106754;1307;24091;-58
2024/03/04 07:17:40;;;;;;;;;;;;;;;3.59;86.18;100442.48;106771;1312;23462;-56
2024/03/04 07:20:30;;;;;;;;;;;;;;;3.71;85.48;100444.91;106842;1306;23151;-55
2024/03/04 07:23:08;;;;;;;;;;;;;;;3.78;84.67;100441.49;106963;1306;23310;-55
2024/03/04 07:26:19;;;;;;;;;;;;;;;3.84;84.35;100440.97;108192;1284;22540;-52
2024/03/04 07:28:48;;;;;;;;;;;;;;;3.89;83.50;100444.58;106888;1296;22552;-51
2024/03/04 07:31:19;;;;;;;;;;;;;;;3.93;83.18;100443.32;106983;1304;22650;-51
2024/03/04 07:33:46;;;;;;;;;;;;;;;3.99;83.00;100437.61;107131;1309;22580;-50
2024/03/04 07:36:26;;;;;;;;;;;;;;;4.05;82.53;100438.82;106982;1302;22533;-56
2024/03/04 07:39:07;;;;;;;;;;;;;;;4.12;82.54;100432.27;106997;1310;22508;-56
2024/03/04 07:41:41;;;;;;;;;;;;;;;4.17;82.14;100433.81;106969;1304;22494;-56
2024/03/04 07:44:44;;;;;;;;;;;;;;;4.26;82.00;100434.59;107046;1307;22494;-56
2024/03/04 07:48:05;;;;;;;;;;;;;;;4.38;81.59;100436.45;107192;1303;23193;-53
2024/03/04 07:50:34;;;;;;;;;;;;;;;4.47;81.08;100440.16;106652;1306;23244;-58
2024/03/04 07:53:04;;;;;;;;;;;;;;;4.55;80.95;100438.81;106909;1306;22494;-53
2024/03/04 07:55:43;;;;;;;;;;;;;;;4.64;80.63;100436.80;106878;1308;22504;-56
2024/03/04 07:58:35;;;;;;;;;;;;;;;4.72;79.99;100438.57;107017;1303;22969;-56
2024/03/04 08:01:12;;;;;;;;;;;;;;;4.78;79.43;100440.45;106907;1310;23494;-58
2024/03/04 08:04:27;;;;;;;;;;;;;;;4.82;79.17;100435.70;107121;1306;22494;-56
2024/03/04 08:07:18;;;;;;;;;;;;;;;4.90;79.11;100438.17;107002;1304;22486;-51
2024/03/04 08:10:22;;;;;;;;;;;;;;;5.02;78.77;100436.89;106893;1310;23252;-57
2024/03/04 08:14:14;;;;;;;;;;;;;;;5.25;78.28;100433.13;106601;1310;22522;-53
2024/03/04 08:16:48;;;;;;;;;;;;;;;5.37;77.89;100431.85;106670;1308;23230;-56
2024/03/04 08:21:14;;;;;;;;;;;;;;;5.46;77.37;100424.95;99569;1294;10181199;-55
2024/03/04 08:31:47;;;;;;;;;;;;;;;5.80;76.41;100427.64;107229;1297;22572;-55
2024/03/04 08:34:19;;;;;;;;;;;;;;;5.88;76.34;100426.77;106915;1306;22664;-55
2024/03/04 08:37:13;;;;;;;;;;;;;;;5.98;75.89;100427.69;106995;1304;22509;-56
2024/03/04 08:39:40;;;;;;;;;;;;;;;6.06;75.56;100425.08;106744;1306;22507;-56
2024/03/04 08:42:26;;;;;;;;;;;;;;;6.16;75.43;100427.70;106760;1306;22565;-53
2024/03/04 08:44:53;;;;;;;;;;;;;;;6.26;74.91;100422.18;106807;1306;22483;-52
2024/03/04 08:47:34;;;;;;;;;;;;;;;6.34;74.72;100422.00;106815;1305;23254;-56
2024/03/04 08:50:06;;;;;;;;;;;;;;;6.42;73.83;100427.52;106439;1305;22521;-52
2024/03/04 08:52:34;;;;;;;;;;;;;;;6.52;74.01;100431.52;106476;1308;23809;-49
2024/03/04 08:55:03;;;;;;;;;;;;;;;6.64;74.21;100433.81;106560;1308;22474;-54
2024/03/04 08:57:34;;;;;;;;;;;;;;;6.77;73.57;100432.84;106817;1304;23843;-53
2024/03/04 09:00:12;;;;;;;;;;;;;;;6.86;73.06;100431.09;106835;1304;23573;-49
2024/03/04 09:02:48;;;;;;;;;;;;;;;6.92;72.58;100427.71;106750;1304;22515;-59
2024/03/04 09:05:29;;;;;;;;;;;;;;;6.97;71.97;100426.93;106659;1299;23704;-56
2024/03/04 09:08:04;;;;;;;;;;;;;;;7.00;71.52;100427.67;106719;1308;23436;-58
2024/03/04 09:10:34;;;;;;;;;;;;;;;7.08;71.00;100423.48;106949;1305;22569;-63
2024/03/04 09:13:08;;;;;;;;;;;;;;;7.15;70.99;100423.58;106954;1304;22447;-58
2024/03/04 09:15:38;;;;;;;;;;;;;;;7.21;70.15;100426.45;106747;1304;22637;-57
2024/03/04 09:18:25;;;;;;;;;;;;;;;7.24;70.46;100423.89;106992;1306;22732;-58
2024/03/04 09:21:04;;;;;;;;;;;;;;;7.26;70.32;100419.09;106745;1307;22717;-58
2024/03/04 09:23:40;;;;;;;;;;;;;;;7.32;70.50;100421.41;106810;1305;22503;-50
2024/03/04 09:26:11;;;;;;;;;;;;;;;7.45;70.04;100420.23;106528;1304;22494;-57
2024/03/04 09:28:53;;;;;;;;;;;;;;;7.59;69.62;100418.17;106919;1305;22849;-51
2024/03/04 09:31:33;;;;;;;;;;;;;;;7.66;69.36;100409.25;106464;1306;22613;-57
2024/03/04 09:34:03;;;;;;;;;;;;;;;7.76;69.58;100412.84;106738;1293;22503;-58
2024/03/04 09:36:32;;;;;;;;;;;;;;;7.85;68.88;100407.40;106760;1304;23278;-53
2024/03/04 09:39:08;;;;;;;;;;;;;;;7.93;68.98;100406.81;106730;1298;22507;-53
2024/03/04 09:41:59;;;;;;;;;;;;;;;8.08;68.84;100403.16;106767;1312;22488;-53
2024/03/04 09:45:32;;;;;;;;;;;;;;;8.29;68.34;100400.28;106805;1306;22524;-58
2024/03/04 09:48:16;;;;;;;;;;;;;;;8.50;67.97;100402.98;106929;1306;22490;-56
2024/03/04 09:50:46;;;;;;;;;;;;;;;8.72;67.16;100398.48;106718;1307;23165;-53
2024/03/04 09:53:28;;;;;;;;;;;;;;;8.85;66.32;100392.16;106803;1305;23272;-55
2024/03/04 09:57:17;;;;;;;;;;;;;;;9.03;65.55;100384.32;106728;1307;22523;-53
2024/03/04 10:00:23;;;;;;;;;;;;;;;9.24;65.03;100384.11;106902;1300;23594;-53
2024/03/04 10:02:56;;;;;;;;;;;;;;;9.37;63.90;100376.36;106990;1304;22470;-56
2024/03/04 10:05:45;;;;;;;;;;;;;;;9.47;63.04;100370.68;106983;1306;22564;-58
2024/03/04 10:08:16;;;;;;;;;;;;;;;9.57;62.57;100374.57;106886;1305;23068;-58
2024/03/04 10:10:50;;;;;;;;;;;;;;;9.63;61.53;100374.08;106983;1305;22468;-53
2024/03/04 10:13:19;;;;;;;;;;;;;;;9.65;61.24;100366.60;106992;1304;22860;-58
2024/03/04 10:15:53;;;;;;;;;;;;;;;9.70;61.38;100370.98;106884;1307;22586;-57
2024/03/04 10:19:05;;;;;;;;;;;;;;;9.83;60.87;100367.55;106772;1306;22486;-59
2024/03/04 10:21:45;;;;;;;;;;;;;;;10.00;60.63;100365.86;106930;1306;22627;-54
2024/03/04 10:24:29;;;;;;;;;;;;;;;10.21;59.91;100361.94;106864;1304;22481;-57
2024/03/04 10:31:23;;;;;;;;;;;;;;;10.87;57.74;100354.71;106698;1305;22480;-51
2024/03/04 10:44:27;;;;;;;;;;;;;;;13.07;51.15;100343.02;106764;1305;23756;-57
2024/03/04 10:47:01;;;;;;;;;;;;;;;13.57;49.81;100336.92;106604;1311;23523;-52
2024/03/04 10:49:39;;;;;;;;;;;;;;;14.01;48.91;100334.44;106855;1305;22508;-56
2024/03/04 10:52:55;;;;;;;;;;;;;;;14.32;47.73;100331.20;106566;1307;22948;-54
2024/03/04 10:56:16;;;;;;;;;;;;;;;14.61;46.41;100326.40;106956;1304;22958;-58
2024/03/04 10:59:26;;;;;;;;;;;;;;;15.24;45.48;100323.55;107063;1290;22621;-55
2024/03/04 11:02:11;;;;;;;;;;;;;;;15.59;44.40;100313.92;106737;1304;22584;-49
2024/03/04 11:04:43;;;;;;;;;;;;;;;15.95;43.51;100315.64;107016;1304;22584;-65
2024/03/04 11:07:13;;;;;;;;;;;;;;;16.38;42.61;100313.78;106971;1303;23491;-61
2024/03/04 11:09:49;;;;;;;;;;;;;;;16.70;41.18;100308.45;106836;1304;23280;-57
2024/03/04 11:15:53;;;;;;;;;;;;;;;16.84;40.03;100314.64;106974;1303;22503;-57
2024/03/04 11:19:23;;;;;;;;;;;;;;;16.90;39.86;100315.20;106731;1306;22971;-57
2024/03/04 11:25:26;;;;;;;;;;;;;;;17.47;38.65;100303.80;106804;1307;22586;-58
2024/03/04 11:31:10;;;;;;;;;;;;;;;17.72;37.73;100307.15;106903;1304;22502;-59
2024/03/04 11:33:47;;;;;;;;;;;;;;;17.59;37.62;100301.69;106773;1306;22544;-58
2024/03/04 11:37:02;;;;;;;;;;;;;;;17.45;37.78;100301.92;106619;1309;22507;-62
2024/03/04 11:40:23;;;;;;;;;;;;;;;17.35;37.46;100295.85;106802;1297;22554;-63
2024/03/04 11:43:41;;;;;;;;;;;;;;;17.34;37.64;100292.70;106682;1304;22528;-60
2024/03/04 11:46:43;;;;;;;;;;;;;;;17.15;37.54;100291.98;106721;1300;23292;-57
2024/03/04 11:49:55;;;;;;;;;;;;;;;16.91;37.48;100292.61;106446;1310;22863;-59
2024/03/04 11:53:20;;;;;;;;;;;;;;;16.77;38.22;100293.34;106335;1309;22558;-59
2024/03/04 11:55:55;;;;;;;;;;;;;;;16.61;38.76;100294.76;106368;1309;23299;-59
2024/03/04 11:58:30;;;;;;;;;;;;;;;16.30;38.49;100298.66;106285;1310;22601;-59
2024/03/04 12:01:13;;;;;;;;;;;;;;;15.84;39.48;100299.71;106406;1312;23221;-59
2024/03/04 12:04:29;;;;;;;;;;;;;;;15.34;40.16;100295.41;106485;1309;22510;-61
2024/03/04 12:06:57;;;;;;;;;;;;;;;14.94;41.22;100293.70;106551;1310;23497;-59
2024/03/04 12:09:27;;;;;;;;;;;;;;;15.01;41.49;100296.40;106710;1316;23388;-59
2024/03/04 12:12:24;;;;;;;;;;;;;;;15.15;41.78;100295.08;106465;1312;22500;-61
2024/03/04 12:15:10;;;;;;;;;;;;;;;15.12;41.67;100293.91;106521;1313;22583;-61
2024/03/04 12:18:53;;;;;;;;;;;;;;;15.02;41.97;100290.56;106318;1310;23003;-63
2024/03/04 12:21:23;;;;;;;;;;;;;;;14.98;41.89;100287.67;106375;1309;22609;-61
2024/03/04 12:23:55;;;;;;;;;;;;;;;15.02;42.08;100287.41;106348;1312;23628;-59
2024/03/04 12:26:23;;;;;;;;;;;;;;;15.15;42.23;100285.58;106361;1312;22926;-62
2024/03/04 12:29:03;;;;;;;;;;;;;;;15.29;41.87;100279.70;106384;1312;22533;-59
2024/03/04 12:31:31;;;;;;;;;;;;;;;15.50;41.67;100285.09;106468;1312;22509;-59
2024/03/04 12:34:03;;;;;;;;;;;;;;;15.59;41.11;100280.86;106644;1309;22544;-60
2024/03/04 12:36:31;;;;;;;;;;;;;;;15.46;41.13;100281.47;106564;1310;22965;-59
2024/03/04 12:38:59;;;;;;;;;;;;;;;15.33;41.51;100281.55;106492;1313;22537;-62
2024/03/04 12:41:28;;;;;;;;;;;;;;;15.31;41.22;100278.61;106480;1309;23374;-59
2024/03/04 12:43:58;;;;;;;;;;;;;;;15.31;41.00;100275.11;106520;1316;22503;-58
2024/03/04 12:46:26;;;;;;;;;;;;;;;15.18;41.62;100278.33;106411;1310;22519;-60
2024/03/04 12:49:03;;;;;;;;;;;;;;;14.97;41.81;100275.40;106462;1310;22507;-58
2024/03/04 12:51:37;;;;;;;;;;;;;;;14.80;42.49;100273.94;106474;1315;22504;-61
2024/03/04 12:54:04;;;;;;;;;;;;;;;14.65;42.27;100274.38;106615;1312;23556;-59
2024/03/04 12:56:31;;;;;;;;;;;;;;;14.47;42.55;100271.31;106539;1311;23047;-59
2024/03/04 12:58:58;;;;;;;;;;;;;;;14.34;43.01;100275.02;106455;1313;22499;-62
2024/03/04 13:01:27;;;;;;;;;;;;;;;14.23;43.41;100273.26;106464;1315;22524;-59
2024/03/04 13:03:56;;;;;;;;;;;;;;;14.12;43.76;100274.31;106564;1309;22481;-61
2024/03/04 13:06:25;;;;;;;;;;;;;;;13.91;44.19;100273.55;106514;1310;23313;-60
2024/03/04 13:08:57;;;;;;;;;;;;;;;13.62;44.58;100272.02;106535;1310;22562;-62
2024/03/04 13:16:03;;;;;;;;;;;;;;;13.14;46.21;100265.38;107044;1289;22594;-63
2024/03/04 13:18:32;;;;;;;;;;;;;;;13.12;46.20;100259.46;107064;1310;23650;-59
2024/03/04 13:21:02;;;;;;;;;;;;;;;13.15;46.28;100259.59;107025;1303;23143;-59
2024/03/04 13:23:31;;;;;;;;;;;;;;;13.15;46.80;100260.45;107161;1310;22473;-59
2024/03/04 13:25:59;;;;;;;;;;;;;;;13.15;46.82;100261.16;107026;1305;23451;-64
2024/03/04 13:28:27;;;;;;;;;;;;;;;13.35;46.81;100258.88;107037;1306;22969;-64
2024/03/04 13:30:55;;;;;;;;;;;;;;;13.73;45.89;100255.05;107036;1306;22452;-60
2024/03/04 13:33:24;;;;;;;;;;;;;;;14.01;45.04;100252.55;106924;1304;22551;-58
2024/03/04 13:35:51;;;;;;;;;;;;;;;14.09;44.83;100251.55;106873;1307;22474;-62
2024/03/04 13:38:19;;;;;;;;;;;;;;;14.14;44.41;100249.90;106871;1309;22486;-58
2024/03/04 13:40:47;;;;;;;;;;;;;;;14.06;44.48;100250.73;106979;1305;22698;-58
2024/03/04 13:43:19;;;;;;;;;;;;;;;14.09;44.66;100247.17;106897;1312;22499;-61
2024/03/04 13:46:23;;;;;;;;;;;;;;;13.97;44.84;100243.84;107013;1311;23130;-62
2024/03/04 13:48:50;;;;;;;;;;;;;;;13.85;45.04;100242.95;106832;1296;23157;-58
2024/03/04 13:51:18;;;;;;;;;;;;;;;13.84;44.72;100236.14;107016;1308;22493;-59
2024/03/04 13:53:48;;;;;;;;;;;;;;;14.04;44.67;100239.36;107006;1307;23323;-62
2024/03/04 14:00:37;;;;;;;;;;;;;;;14.37;44.01;100244.09;107040;1307;22515;-59
2024/03/04 14:03:17;;;;;;;;;;;;;;;14.56;43.58;100237.50;107137;1297;22658;-62
2024/03/04 14:05:45;;;;;;;;;;;;;;;14.44;43.41;100238.56;107120;1312;23339;-62
2024/03/04 14:08:13;;;;;;;;;;;;;;;14.13;43.70;100234.30;107110;1307;22507;-59
2024/03/04 14:10:43;;;;;;;;;;;;;;;13.84;44.53;100234.20;107135;1311;23126;-61
2024/03/04 14:13:15;;;;;;;;;;;;;;;13.77;44.84;100233.06;107052;1308;22695;-62
2024/03/04 14:15:46;;;;;;;;;;;;;;;13.81;45.03;100234.77;107077;1306;22510;-62
2024/03/04 14:18:14;;;;;;;;;;;;;;;13.96;44.76;100235.95;107051;1312;22458;-62
